Medford, MA (02153)

8:40 PM EST on March 06, 2015 (GMT -0500)
Lawrence Estates | Change Station
CLOSE
Current Station
Personal Weather Station
Location: Medford, MA
Elevation: 53 ft
Nearby Weather Stations

Elev 53 ft 42.42 °N, 71.12 °W | Updated 4 seconds ago

Partly Cloudy
Partly Cloudy
21.4 °F
Feels Like 21 °F
N
0.0
Wind Variable Wind from NW
Gusts 3.1 mph

Today
High -- | Low -- °F
--% Chance of Precip.
Yesterday
High -- | Low -- °F
Precip. -- in
6:12 AM 5:39 PM
Full, 98% visible
Pressure 30.36 in
Visibility 10.0 miles
Clouds Few 4000 ft
Mostly Cloudy 22000 ft
Windchill 21 °F
Dew Point 7 °F
Humidity 53%
Rainfall in
Snow Depth Not available.
UV 0 out of 12
Pollen .50 out of 12
Air Quality Not available.
Flu Activity Not available.
METAR KBOS 070054Z 21011KT 10SM FEW040 BKN220 M06/M16 A3036 RMK AO2 SLP279 T10611156

More Conditions Fewer Conditions

Pressure 30.36 in
Visibility 10.0 miles
Clouds Few 4000 ft
Mostly Cloudy 22000 ft
Windchill 21 °F
Dew Point 7 °F
Humidity 53%
Rainfall in
Snow Depth Not available.
UV 0 out of 12
Pollen .50 out of 12
Air Quality Not available.
Flu Activity Not available.
METAR KBOS 070054Z 21011KT 10SM FEW040 BKN220 M06/M16 A3036 RMK AO2 SLP279 T10611156

More Conditions Fewer Conditions

10-Day Weather Forecast

Almanac

Astronomy

Mar. 06, 2015 Rise Set
Actual Time
Civil Twilight
Nautical Twilight
Astronomical Twilight
Moon
Length of Visible Light
Length of Day
Tomorrow will be .
, % of the Moon is Illuminated

Today's Extremes

State Highs State Lows

Community

WunderPhotos

Upload Photos

1,803,494 photos uploaded!

WunderBlogs® & News

Nearby

Air Quality

  Air Quality AQ Index Pollutant
Not available.

Snow Depth

Station Depth Elevation

Earthquake Activity

City Distance Mag. Time & Date
Minimum magnitude displayed is 2.5.

Coastal Water Temperatures

Place Temperature

Nearby Weather Stations